Piarco FIR Weather

TAPA 170300Z 11005KT 9999 FEW017 BKN036 25/20 Q1019 NOSIG

TBPB 170300Z 09015KT 9999 SCT018 25/21 Q1017 NOSIG

TDPD 170100Z 30003KT 9999 SCT017 21/20 Q1019

TFFF 170300Z AUTO 08005KT 9999 FEW027 24/20 Q1018 NOSIG

TFFR 170300Z AUTO 00000KT CAVOK 21/20 Q1018 NOSIG

TGPY 170300Z 09010KT 9999 FEW020 26/22 Q1016 NOSIG

TKPK 162300Z 02007KT 9999 FEW018 BKN042 24/20 Q1018

TKPN 170000Z 09011KT 9999 SCT020 SCT048 25/20 Q1018

TLPC 170000Z 09007KT 9999 SCT024 26/22 Q1017 NOSIG

TLPL 170300Z 07016KT 9999 BKN023 26/22 Q1017 TEMPO SHRA

TTCP 170200Z 07003KT 9999 BKN018 25/21 Q1016 NOSIG

TTPP 170200Z 09005KT 9999 FEW018 25/22 Q1016 NOSIG

TVSV 121600Z 08005KT 040V120 9999 SCT020 28/20 Q1017 NOSIG